METAR Data
IDs: Format: Raw Decoded Include TAF

Data at: 2114 UTC 15 Oct 2018

METAR for:KLCK (Rickenbacker AFB, OH, US)
Text:KLCK 152055Z AUTO 29010G15KT 10SM OVC026 11/07 A3011 RMK AO2 T01100074
Temperature: 11.0°C ( 52°F)
Dewpoint: 7.4°C ( 45°F) [RH = 78%]
Pressure (altimeter):30.11 inches Hg (1019.7 mb)
Winds:from the WNW (290 degrees) at 12 MPH (10 knots; 5.1 m/s) gusting to 17 MPH (15 knots; 7.7 m/s)
Visibility:10 or more sm (16+ km)
Ceiling:2600 feet AGL
Clouds: overcast cloud deck at 2600 feet AGL
QC Flag:automated observation with no human augmentation